createdAt,value
2019-04-07T00:01:52.683Z,23.90
2019-04-07T00:04:25.522Z,23.13
2019-04-07T00:06:56.620Z,22.87
2019-04-07T00:09:27.732Z,22.63
2019-04-07T00:11:59.178Z,24.43
2019-04-07T00:14:28.189Z,23.30
2019-04-07T00:16:57.233Z,23.07
2019-04-07T00:19:25.935Z,23.80
2019-04-07T00:21:54.562Z,24.03
2019-04-07T00:24:23.187Z,23.17
2019-04-07T00:26:52.453Z,22.53
2019-04-07T00:29:21.536Z,24.47
2019-04-07T00:31:50.169Z,25.00
2019-04-07T00:34:19.194Z,23.17
2019-04-07T00:36:48.058Z,24.17
2019-04-07T00:39:16.937Z,23.63
2019-04-07T00:41:45.665Z,24.87
2019-04-07T00:44:14.676Z,24.57
2019-04-07T00:46:43.516Z,26.07
2019-04-07T00:49:13.120Z,25.70
2019-04-07T00:51:42.147Z,23.40
2019-04-07T00:54:11.467Z,25.67
2019-04-07T00:56:40.181Z,24.17
2019-04-07T00:59:08.864Z,23.83
2019-04-07T01:01:37.474Z,24.83
2019-04-07T01:04:06.186Z,25.47
2019-04-07T01:06:36.189Z,24.13
2019-04-07T01:09:06.961Z,24.77
2019-04-07T01:11:36.301Z,24.03
2019-04-07T01:14:06.006Z,24.50
2019-04-07T01:16:35.263Z,25.13
2019-04-07T01:19:04.583Z,24.20
2019-04-07T01:21:33.453Z,23.67
2019-04-07T01:24:02.336Z,24.70
2019-04-07T01:26:31.822Z,23.60
2019-04-07T01:29:00.517Z,24.27
2019-04-07T01:31:29.810Z,23.40
2019-04-07T01:33:58.741Z,23.97
2019-04-07T01:36:27.983Z,22.13
2019-04-07T01:38:56.686Z,23.60
2019-04-07T01:41:34.072Z,23.90
2019-04-07T01:44:08.020Z,22.40
2019-04-07T01:46:46.071Z,24.13
2019-04-07T01:49:21.154Z,24.70
2019-04-07T01:52:07.223Z,25.93
2019-04-07T01:54:53.849Z,25.90
2019-04-07T01:57:53.532Z,25.47
2019-04-07T02:00:33.803Z,25.80
2019-04-07T02:03:12.421Z,25.87
2019-04-07T02:06:02.002Z,25.10
2019-04-07T02:08:54.069Z,26.87
2019-04-07T02:11:29.391Z,25.27
2019-04-07T02:14:07.027Z,25.57
2019-04-07T02:16:43.461Z,25.50
2019-04-07T02:19:28.267Z,23.93
2019-04-07T02:22:15.928Z,24.60
2019-04-07T02:24:49.873Z,23.70
2019-04-07T02:27:33.426Z,25.00
2019-04-07T02:30:23.856Z,24.30
2019-04-07T02:33:12.487Z,24.20
2019-04-07T02:36:25.524Z,24.13
2019-04-07T02:39:04.516Z,25.83
2019-04-07T02:41:40.295Z,24.40
2019-04-07T02:44:22.856Z,24.40
2019-04-07T02:47:08.587Z,24.00
2019-04-07T02:49:56.571Z,25.60
2019-04-07T02:52:43.186Z,30.43
2019-04-07T02:55:30.886Z,32.93
2019-04-07T02:58:21.636Z,31.77
2019-04-07T03:01:12.149Z,32.13
2019-04-07T03:04:05.994Z,33.23
2019-04-07T03:06:53.654Z,30.90
2019-04-07T03:09:54.662Z,29.43
2019-04-07T03:12:51.390Z,27.77
2019-04-07T03:15:46.191Z,26.27
2019-04-07T03:18:34.420Z,24.40
2019-04-07T03:21:10.523Z,25.00
2019-04-07T03:24:06.560Z,24.07
2019-04-07T03:26:55.592Z,24.20
2019-04-07T03:29:43.041Z,25.00
2019-04-07T03:32:30.460Z,23.07
2019-04-07T03:35:26.575Z,24.50
2019-04-07T03:38:17.056Z,25.20
2019-04-07T03:41:05.368Z,23.93
2019-04-07T03:43:56.991Z,22.33
2019-04-07T03:46:34.767Z,21.73
2019-04-07T03:49:14.900Z,22.83
2019-04-07T03:51:49.865Z,23.53
2019-04-07T03:54:48.309Z,21.13
2019-04-07T03:57:36.489Z,20.93
2019-04-07T04:00:18.702Z,21.53
2019-04-07T04:03:09.479Z,21.90
2019-04-07T04:05:57.366Z,22.80
2019-04-07T04:08:35.309Z,20.60
2019-04-07T04:11:10.151Z,21.30
2019-04-07T04:13:46.172Z,22.17
2019-04-07T04:16:18.393Z,21.30
2019-04-07T04:18:47.086Z,21.57
2019-04-07T04:21:16.411Z,22.30
2019-04-07T04:23:45.749Z,21.50
2019-04-07T04:26:15.135Z,21.40
2019-04-07T04:28:44.259Z,21.53
2019-04-07T04:31:13.124Z,19.70
2019-04-07T04:33:42.725Z,21.00
2019-04-07T04:36:11.376Z,19.80
2019-04-07T04:38:40.489Z,21.87
2019-04-07T04:41:09.999Z,21.70
2019-04-07T04:43:39.306Z,21.37
2019-04-07T04:46:10.896Z,22.80
2019-04-07T04:48:38.860Z,21.73
2019-04-07T04:51:08.506Z,22.43
2019-04-07T04:53:38.160Z,21.07
2019-04-07T04:56:07.621Z,20.40
2019-04-07T04:58:36.294Z,21.23
2019-04-07T05:01:05.013Z,21.60
2019-04-07T05:03:33.869Z,21.20
2019-04-07T05:06:02.568Z,22.23
2019-04-07T05:08:31.290Z,23.03
2019-04-07T05:11:00.038Z,24.43
2019-04-07T05:13:28.878Z,22.90
2019-04-07T05:15:57.723Z,22.00
2019-04-07T05:18:26.864Z,21.17
2019-04-07T05:20:56.318Z,20.40
2019-04-07T05:23:25.184Z,21.10
2019-04-07T05:25:54.381Z,22.57
2019-04-07T05:28:23.125Z,22.60
2019-04-07T05:30:51.882Z,20.87
2019-04-07T05:33:21.110Z,20.93
2019-04-07T05:35:50.437Z,20.63
2019-04-07T05:38:19.236Z,19.30
2019-04-07T05:40:47.853Z,20.47
2019-04-07T05:43:16.488Z,19.17
2019-04-07T05:45:46.391Z,20.80
2019-04-07T05:48:19.302Z,18.90
2019-04-07T05:50:46.094Z,20.50
2019-04-07T05:53:15.063Z,19.97
2019-04-07T05:55:43.763Z,19.33
2019-04-07T05:58:15.447Z,18.97
2019-04-07T06:00:48.704Z,19.13
2019-04-07T06:03:20.522Z,18.73
2019-04-07T06:05:51.071Z,17.97
2019-04-07T06:08:30.281Z,18.33
2019-04-07T06:11:00.178Z,17.83
2019-04-07T06:13:32.934Z,17.23
2019-04-07T06:16:05.640Z,17.97
2019-04-07T06:18:34.764Z,16.83
2019-04-07T06:21:17.332Z,17.80
2019-04-07T06:23:50.727Z,18.03
2019-04-07T06:26:22.208Z,18.50
2019-04-07T06:28:54.633Z,16.90
2019-04-07T06:31:27.103Z,16.40
2019-04-07T06:34:04.178Z,17.57
2019-04-07T06:36:51.632Z,17.37
2019-04-07T06:39:19.933Z,18.00
2019-04-07T06:41:53.443Z,17.70
2019-04-07T06:44:30.120Z,17.63
2019-04-07T06:47:30.752Z,17.13
2019-04-07T06:50:17.894Z,17.57
2019-04-07T06:53:10.621Z,16.33
2019-04-07T06:56:06.050Z,17.83
2019-04-07T06:59:05.948Z,15.17
2019-04-07T07:02:14.465Z,15.77
2019-04-07T07:05:08.421Z,15.97
2019-04-07T07:08:10.037Z,16.37
2019-04-07T07:10:56.290Z,15.40
2019-04-07T07:13:41.419Z,15.00
2019-04-07T07:16:35.013Z,16.20
2019-04-07T07:19:40.146Z,15.90
2019-04-07T07:22:28.448Z,17.27
2019-04-07T07:25:01.311Z,15.03
2019-04-07T07:27:40.378Z,15.20
2019-04-07T07:30:12.174Z,10.33
2019-04-07T07:32:44.111Z,10.20
2019-04-07T07:35:15.292Z,8.83
2019-04-07T07:37:58.136Z,8.53
2019-04-07T07:40:31.311Z,9.30
2019-04-07T07:43:14.572Z,8.90
2019-04-07T07:45:48.316Z,9.00
2019-04-07T07:48:20.808Z,9.20
2019-04-07T07:51:12.569Z,8.30
2019-04-07T07:53:39.493Z,7.40
2019-04-07T07:56:12.391Z,7.87
2019-04-07T07:58:50.448Z,6.70
2019-04-07T08:01:23.513Z,7.40
2019-04-07T08:03:55.872Z,7.40
2019-04-07T08:06:25.041Z,7.13
2019-04-07T08:09:01.154Z,7.67
2019-04-07T08:11:24.249Z,7.30
2019-04-07T08:13:53.610Z,6.97
2019-04-07T08:16:22.271Z,7.20
2019-04-07T08:18:51.074Z,6.77
2019-04-07T08:21:20.860Z,6.43
2019-04-07T08:23:49.572Z,7.17
2019-04-07T08:26:25.193Z,6.60
2019-04-07T08:28:54.825Z,6.97
2019-04-07T08:31:25.668Z,5.97
2019-04-07T08:33:59.681Z,6.90
2019-04-07T08:36:27.829Z,6.43
2019-04-07T08:38:57.143Z,6.10
2019-04-07T08:41:26.738Z,6.87
2019-04-07T08:44:17.210Z,7.30
2019-04-07T08:47:10.809Z,6.60
2019-04-07T08:49:38.103Z,7.20
2019-04-07T08:52:12.051Z,6.87
2019-04-07T08:54:44.193Z,7.67
2019-04-07T08:57:21.379Z,6.93
2019-04-07T08:59:53.885Z,7.13
2019-04-07T09:02:26.886Z,6.57
2019-04-07T09:04:53.081Z,7.10
2019-04-07T09:07:24.302Z,6.90
2019-04-07T09:10:20.698Z,8.23
2019-04-07T09:12:50.998Z,7.83
2019-04-07T09:15:29.757Z,6.80
2019-04-07T09:18:05.483Z,6.60
2019-04-07T09:20:48.471Z,6.77
2019-04-07T09:23:34.417Z,5.77
2019-04-07T09:26:20.719Z,5.70
2019-04-07T09:28:59.220Z,6.00
2019-04-07T09:32:02.794Z,6.30
2019-04-07T09:35:16.607Z,5.67
2019-04-07T09:38:21.638Z,5.20
2019-04-07T09:45:12.793Z,5.40
2019-04-07T09:48:02.130Z,5.17
2019-04-07T09:50:37.597Z,5.10
2019-04-07T09:53:21.491Z,5.30
2019-04-07T09:56:42.887Z,5.30
2019-04-07T09:59:37.542Z,5.83
2019-04-07T10:02:37.241Z,4.60
2019-04-07T10:08:55.636Z,4.47
2019-04-07T10:11:39.128Z,3.70
2019-04-07T10:14:37.632Z,4.17
2019-04-07T10:17:27.724Z,4.30
2019-04-07T10:23:48.734Z,4.10
2019-04-07T10:30:15.699Z,3.03
2019-04-07T11:15:45.140Z,1.80
2019-04-07T11:44:48.896Z,1.80
2019-04-07T11:51:19.527Z,2.10
2019-04-07T11:58:15.092Z,1.53
2019-04-07T12:01:22.920Z,1.97
2019-04-07T12:04:30.663Z,1.57
2019-04-07T12:08:31.144Z,1.10
2019-04-07T13:35:28.081Z,1.90
2019-04-07T13:38:22.014Z,1.50
2019-04-07T13:41:21.777Z,1.57
2019-04-07T13:44:08.844Z,1.50
2019-04-07T13:46:49.415Z,1.40
2019-04-07T13:49:27.838Z,1.63
2019-04-07T13:52:18.402Z,1.70
2019-04-07T13:54:52.591Z,1.33
2019-04-07T13:57:42.935Z,1.90
2019-04-07T14:00:37.121Z,1.40
2019-04-07T14:03:43.719Z,1.23
2019-04-07T14:06:17.509Z,1.70
2019-04-07T14:09:04.401Z,1.27
2019-04-07T14:12:08.278Z,1.23
2019-04-07T14:14:54.987Z,1.30
2019-04-07T14:18:05.794Z,1.37
2019-04-07T14:21:18.133Z,1.77
2019-04-07T14:24:23.795Z,1.70
2019-04-07T14:27:22.077Z,1.33
2019-04-07T14:30:04.661Z,1.70
2019-04-07T14:33:00.140Z,1.73
2019-04-07T14:36:08.917Z,1.27
2019-04-07T14:39:00.314Z,1.33
2019-04-07T14:42:01.026Z,1.50
2019-04-07T14:45:07.805Z,1.50
2019-04-07T14:47:54.607Z,1.60
2019-04-07T14:50:57.150Z,1.40
2019-04-07T14:54:15.301Z,1.47
2019-04-07T14:57:09.362Z,1.60
2019-04-07T15:00:02.129Z,1.60
2019-04-07T15:17:26.398Z,1.70
2019-04-07T15:47:00.502Z,2.57
2019-04-07T15:49:29.521Z,2.17
2019-04-07T15:51:59.334Z,1.80
2019-04-07T15:54:28.603Z,1.70
2019-04-07T15:56:58.780Z,1.30
2019-04-07T15:59:29.788Z,1.20
2019-04-07T16:01:58.510Z,0.97
2019-04-07T16:04:29.315Z,1.37
2019-04-07T16:06:57.883Z,1.30
2019-04-07T16:09:34.630Z,1.47
2019-04-07T16:11:59.077Z,1.10
2019-04-07T16:14:27.617Z,1.20
2019-04-07T16:16:59.539Z,1.60
2019-04-07T16:19:37.406Z,1.10
2019-04-07T16:21:57.356Z,1.30
2019-04-07T16:24:26.899Z,1.10
2019-04-07T16:26:56.186Z,1.70
2019-04-07T16:29:24.879Z,1.20
2019-04-07T16:31:55.772Z,0.90
2019-04-07T16:34:23.920Z,1.40
2019-04-07T16:36:55.136Z,1.10
2019-04-07T16:39:23.120Z,1.20
2019-04-07T16:41:51.674Z,1.40
2019-04-07T16:44:20.416Z,1.77
2019-04-07T16:46:49.039Z,1.07
2019-04-07T16:49:19.002Z,1.60
2019-04-07T16:51:49.522Z,1.40
2019-04-07T16:54:24.492Z,1.27
2019-04-07T16:56:56.952Z,1.17
2019-04-07T17:03:17.304Z,1.60
2019-04-07T17:05:48.028Z,1.43
2019-04-07T17:08:24.957Z,1.63
2019-04-07T17:11:21.366Z,1.40
2019-04-07T17:13:53.642Z,1.47
2019-04-07T17:16:52.177Z,1.27
2019-04-07T17:19:29.211Z,2.00
2019-04-07T17:22:01.823Z,1.27
2019-04-07T17:24:44.177Z,1.30
2019-04-07T17:27:27.001Z,1.43
2019-04-07T17:29:58.449Z,1.67
2019-04-07T17:32:40.371Z,1.40
2019-04-07T17:35:15.254Z,1.10
2019-04-07T17:40:58.010Z,1.40
2019-04-07T17:44:00.853Z,1.33
2019-04-07T17:47:05.826Z,1.77
2019-04-07T17:49:56.667Z,1.63
2019-04-07T17:52:41.247Z,1.90
2019-04-07T17:55:29.956Z,2.00
2019-04-07T17:58:12.639Z,1.70
2019-04-07T18:00:56.802Z,1.50
2019-04-07T18:03:57.073Z,1.80
2019-04-07T18:06:42.896Z,1.80
2019-04-07T18:09:51.353Z,1.70
2019-04-07T18:12:47.917Z,1.63
2019-04-07T18:15:38.310Z,1.80
2019-04-07T18:22:22.026Z,1.70
2019-04-07T18:25:10.548Z,1.97
2019-04-07T18:28:03.004Z,1.80
2019-04-07T18:30:54.283Z,2.07
2019-04-07T18:33:41.388Z,1.80
2019-04-07T18:36:36.009Z,2.00
2019-04-07T18:39:36.375Z,1.80
2019-04-07T18:42:27.273Z,1.90
2019-04-07T18:45:23.152Z,2.40
2019-04-07T18:48:08.034Z,2.30
2019-04-07T18:51:13.211Z,2.83
2019-04-07T18:54:34.174Z,2.37
2019-04-07T18:57:24.982Z,2.40
2019-04-07T19:00:24.521Z,2.67
2019-04-07T19:03:04.514Z,2.80
2019-04-07T19:06:12.764Z,3.30
2019-04-07T19:09:04.917Z,2.60
2019-04-07T19:12:18.899Z,1.80
2019-04-07T19:15:09.196Z,3.77
2019-04-07T19:18:00.574Z,2.60
2019-04-07T19:20:56.280Z,2.53
2019-04-07T19:23:47.744Z,2.53
2019-04-07T19:26:44.299Z,2.13
2019-04-07T19:29:28.263Z,2.10
2019-04-07T19:32:19.916Z,2.40
2019-04-07T19:35:05.735Z,2.20
2019-04-07T19:38:17.114Z,1.80
2019-04-07T19:41:02.924Z,1.97
2019-04-07T19:44:06.015Z,2.13
2019-04-07T19:46:59.683Z,2.50
2019-04-07T19:49:55.443Z,2.03
2019-04-07T19:52:44.242Z,2.87
2019-04-07T19:55:32.578Z,2.13
2019-04-07T19:58:37.300Z,2.57
2019-04-07T20:01:29.193Z,2.20
2019-04-07T20:04:24.903Z,2.57
2019-04-07T20:07:11.537Z,2.43
2019-04-07T20:09:59.783Z,2.70
2019-04-07T20:12:42.501Z,2.20
2019-04-07T20:15:30.610Z,2.50
2019-04-07T20:18:25.552Z,2.60
2019-04-07T20:21:18.484Z,2.37
2019-04-07T20:24:09.216Z,2.73
2019-04-07T20:26:58.845Z,2.27
2019-04-07T20:29:43.373Z,2.70
2019-04-07T20:32:44.876Z,2.57
2019-04-07T20:35:20.986Z,2.53
2019-04-07T20:38:51.176Z,2.10
2019-04-07T20:41:21.710Z,2.80
2019-04-07T20:44:01.180Z,2.43
2019-04-07T20:46:53.664Z,2.27
2019-04-07T20:50:18.272Z,2.70
2019-04-07T20:53:22.850Z,2.00
2019-04-07T20:56:14.661Z,2.50
2019-04-07T20:59:29.453Z,3.33
2019-04-07T21:02:33.737Z,2.80
2019-04-07T21:05:24.715Z,3.10
2019-04-07T21:08:22.975Z,2.47
2019-04-07T21:11:08.079Z,2.77
2019-04-07T21:13:54.921Z,3.83
2019-04-07T21:17:03.813Z,3.20
2019-04-07T21:19:47.336Z,3.37
2019-04-07T21:22:31.434Z,2.73
2019-04-07T21:25:24.848Z,2.40
2019-04-07T21:28:05.145Z,2.63
2019-04-07T21:30:46.237Z,2.60
2019-04-07T21:33:45.404Z,1.97
2019-04-07T21:36:28.047Z,2.40
2019-04-07T21:39:30.563Z,1.97
2019-04-07T21:42:20.973Z,2.10
2019-04-07T21:45:28.507Z,3.13
2019-04-07T21:48:28.593Z,2.60
2019-04-07T21:51:19.488Z,2.80
2019-04-07T21:54:14.001Z,2.73
2019-04-07T21:57:05.744Z,2.50
2019-04-07T21:59:59.517Z,2.90
2019-04-07T22:02:45.617Z,2.83
2019-04-07T22:05:33.352Z,2.50
2019-04-07T22:08:16.965Z,2.43
2019-04-07T22:10:43.248Z,2.47
2019-04-07T22:13:14.225Z,4.07
2019-04-07T22:15:55.577Z,2.93
2019-04-07T22:18:39.475Z,3.10
2019-04-07T22:21:17.056Z,3.30
2019-04-07T22:23:54.132Z,3.93
2019-04-07T22:26:28.246Z,4.43
2019-04-07T22:29:04.021Z,3.43
2019-04-07T22:31:45.612Z,3.67
2019-04-07T22:34:15.066Z,2.87
2019-04-07T22:36:47.029Z,3.17
2019-04-07T22:39:14.239Z,3.40
2019-04-07T22:41:44.247Z,3.47
2019-04-07T22:44:13.360Z,4.03
2019-04-07T22:46:42.204Z,4.00
2019-04-07T22:49:11.416Z,4.57
2019-04-07T22:51:43.096Z,4.20
2019-04-07T22:54:10.571Z,4.27
2019-04-07T22:56:39.926Z,4.40
2019-04-07T22:59:10.507Z,3.80
2019-04-07T23:01:40.787Z,4.70
2019-04-07T23:04:09.719Z,3.80
2019-04-07T23:06:38.418Z,4.53
2019-04-07T23:09:08.140Z,4.40
2019-04-07T23:11:37.615Z,5.00
2019-04-07T23:14:07.291Z,5.30
2019-04-07T23:16:36.037Z,7.27
2019-04-07T23:19:04.743Z,8.90
2019-04-07T23:21:34.083Z,11.00
2019-04-07T23:24:03.443Z,10.90
2019-04-07T23:26:32.221Z,13.20
2019-04-07T23:29:00.854Z,11.83
2019-04-07T23:31:32.026Z,10.93
2019-04-07T23:34:00.750Z,11.67
2019-04-07T23:36:29.348Z,12.57
2019-04-07T23:38:58.148Z,13.50
2019-04-07T23:41:27.738Z,14.73
2019-04-07T23:43:56.798Z,15.27
2019-04-07T23:46:27.220Z,14.00
2019-04-07T23:48:56.040Z,15.40
2019-04-07T23:51:24.672Z,13.47
2019-04-07T23:54:10.891Z,15.07
2019-04-07T23:56:41.975Z,17.57
2019-04-07T23:59:10.885Z,17.10
